Cwmbran, United Kingdom
Current Conditions -  °F | °C
As of 4:20 PM on Sunday 21 Dec 2014 (Local Time) from EGFF Reporting Station
Light Rain Light Rain  
Wind Chill: 50°   Ceiling: 400
Heat Index: 50°   Visibility: 4mi
Dew Point: 50°   Wind: 20mph
Humidity: 100%   Direction: 260°W
Pressure: 30.24"   Gusts: NA
Location:  51.65°N, 3.03°W
Report Text: EGFF 211620Z AUTO 26017KT 7000 -RA OVC004 10/10 Q1024 RERA
Loading
Personal Weather Stations






























Interactive Weather Map New forecast layout! Learn more

10-Day Weather Forecast

Advertisements
Track Severe Weather on mobile